sensor_id;sensor_type;location;lat;lon;timestamp;pressure;altitude;pressure_sealevel;temperature;humidity
25420;BME280;13354;48.174;11.566;2023-04-23T00:01:05;95134.88;;;16.89;54.20
25420;BME280;13354;48.174;11.566;2023-04-23T00:03:31;95134.31;;;16.87;53.96
25420;BME280;13354;48.174;11.566;2023-04-23T00:06:03;95129.19;;;16.85;54.23
25420;BME280;13354;48.174;11.566;2023-04-23T00:08:29;95133.75;;;16.85;53.46
25420;BME280;13354;48.174;11.566;2023-04-23T00:10:55;95132.53;;;16.76;53.78
25420;BME280;13354;48.174;11.566;2023-04-23T00:13:21;95129.28;;;16.74;53.93
25420;BME280;13354;48.174;11.566;2023-04-23T00:15:46;95123.53;;;16.65;54.46
25420;BME280;13354;48.174;11.566;2023-04-23T00:18:12;95121.13;;;16.80;52.79
25420;BME280;13354;48.174;11.566;2023-04-23T00:20:37;95118.88;;;16.60;53.84
25420;BME280;13354;48.174;11.566;2023-04-23T00:23:02;95118.19;;;16.65;53.68
25420;BME280;13354;48.174;11.566;2023-04-23T00:25:28;95114.44;;;16.66;53.49
25420;BME280;13354;48.174;11.566;2023-04-23T00:27:53;95107.72;;;16.63;53.61
25420;BME280;13354;48.174;11.566;2023-04-23T00:30:18;95102.94;;;16.65;53.81
25420;BME280;13354;48.174;11.566;2023-04-23T00:32:43;95102.03;;;16.60;54.16
25420;BME280;13354;48.174;11.566;2023-04-23T00:35:09;95106.59;;;16.59;54.15
25420;BME280;13354;48.174;11.566;2023-04-23T00:37:34;95100.38;;;16.54;54.70
25420;BME280;13354;48.174;11.566;2023-04-23T00:39:59;95101.41;;;16.53;54.52
25420;BME280;13354;48.174;11.566;2023-04-23T00:42:24;95096.56;;;16.50;54.65
25420;BME280;13354;48.174;11.566;2023-04-23T00:44:50;95101.66;;;16.51;54.46
25420;BME280;13354;48.174;11.566;2023-04-23T00:47:16;95099.56;;;16.53;54.29
25420;BME280;13354;48.174;11.566;2023-04-23T00:49:41;95097.69;;;16.54;54.74
25420;BME280;13354;48.174;11.566;2023-04-23T00:52:07;95096.31;;;16.51;54.47
25420;BME280;13354;48.174;11.566;2023-04-23T00:54:32;95096.06;;;16.53;54.17
25420;BME280;13354;48.174;11.566;2023-04-23T00:56:57;95098.06;;;16.46;54.82
25420;BME280;13354;48.174;11.566;2023-04-23T00:59:24;95093.47;;;16.41;54.78
25420;BME280;13354;48.174;11.566;2023-04-23T01:01:49;95091.22;;;16.50;53.97
25420;BME280;13354;48.174;11.566;2023-04-23T01:04:15;95087.00;;;16.37;54.94
25420;BME280;13354;48.174;11.566;2023-04-23T01:06:41;95091.59;;;16.41;54.75
25420;BME280;13354;48.174;11.566;2023-04-23T01:09:07;95093.06;;;16.32;54.66
25420;BME280;13354;48.174;11.566;2023-04-23T01:11:34;95093.28;;;16.31;55.69
25420;BME280;13354;48.174;11.566;2023-04-23T01:13:59;95091.59;;;16.25;55.57
25420;BME280;13354;48.174;11.566;2023-04-23T01:16:25;95089.97;;;16.24;55.82
25420;BME280;13354;48.174;11.566;2023-04-23T01:18:50;95094.59;;;16.28;55.12
25420;BME280;13354;48.174;11.566;2023-04-23T01:21:17;95091.75;;;16.18;55.45
25420;BME280;13354;48.174;11.566;2023-04-23T01:23:43;95094.34;;;16.13;55.64
25420;BME280;13354;48.174;11.566;2023-04-23T01:26:08;95091.03;;;16.23;55.78
25420;BME280;13354;48.174;11.566;2023-04-23T01:28:34;95096.19;;;16.12;56.28
25420;BME280;13354;48.174;11.566;2023-04-23T01:31:00;95085.03;;;16.15;56.43
25420;BME280;13354;48.174;11.566;2023-04-23T01:33:26;95085.50;;;16.12;56.52
25420;BME280;13354;48.174;11.566;2023-04-23T01:35:51;95084.63;;;16.24;56.13
25420;BME280;13354;48.174;11.566;2023-04-23T01:38:17;95085.50;;;16.12;57.63
25420;BME280;13354;48.174;11.566;2023-04-23T01:40:43;95074.28;;;16.10;58.41
25420;BME280;13354;48.174;11.566;2023-04-23T01:43:08;95083.34;;;16.09;58.22
25420;BME280;13354;48.174;11.566;2023-04-23T01:45:35;95086.50;;;16.06;58.87
25420;BME280;13354;48.174;11.566;2023-04-23T01:48:01;95090.19;;;16.05;59.47
25420;BME280;13354;48.174;11.566;2023-04-23T01:50:27;95082.34;;;15.99;59.97
25420;BME280;13354;48.174;11.566;2023-04-23T01:52:53;95083.63;;;15.96;59.92
25420;BME280;13354;48.174;11.566;2023-04-23T01:55:19;95084.44;;;15.97;59.96
25420;BME280;13354;48.174;11.566;2023-04-23T01:57:47;95083.06;;;15.94;60.04
25420;BME280;13354;48.174;11.566;2023-04-23T02:00:13;95089.22;;;15.94;61.04
25420;BME280;13354;48.174;11.566;2023-04-23T02:02:39;95089.44;;;15.93;60.87
25420;BME280;13354;48.174;11.566;2023-04-23T02:05:09;95093.06;;;15.87;61.15
25420;BME280;13354;48.174;11.566;2023-04-23T02:07:35;95091.56;;;16.08;59.84
25420;BME280;13354;48.174;11.566;2023-04-23T02:10:01;95098.38;;;16.15;59.00
25420;BME280;13354;48.174;11.566;2023-04-23T02:12:26;95099.78;;;16.18;58.70
25420;BME280;13354;48.174;11.566;2023-04-23T02:14:51;95099.91;;;16.11;59.32
25420;BME280;13354;48.174;11.566;2023-04-23T02:17:18;95099.44;;;16.14;59.18
25420;BME280;13354;48.174;11.566;2023-04-23T02:19:43;95100.03;;;16.16;59.07
25420;BME280;13354;48.174;11.566;2023-04-23T02:22:09;95100.25;;;16.15;59.30
25420;BME280;13354;48.174;11.566;2023-04-23T02:24:34;95098.72;;;16.19;58.94
25420;BME280;13354;48.174;11.566;2023-04-23T02:27:00;95094.91;;;16.15;59.34
25420;BME280;13354;48.174;11.566;2023-04-23T02:29:26;95098.19;;;16.05;61.23
25420;BME280;13354;48.174;11.566;2023-04-23T02:31:51;95092.44;;;15.97;62.42
25420;BME280;13354;48.174;11.566;2023-04-23T02:34:16;95093.91;;;15.87;63.51
25420;BME280;13354;48.174;11.566;2023-04-23T02:36:41;95089.84;;;15.85;62.95
25420;BME280;13354;48.174;11.566;2023-04-23T02:39:06;95095.19;;;15.85;62.70
25420;BME280;13354;48.174;11.566;2023-04-23T02:41:32;95096.59;;;15.76;62.97
25420;BME280;13354;48.174;11.566;2023-04-23T02:43:57;95098.94;;;15.72;63.40
25420;BME280;13354;48.174;11.566;2023-04-23T02:46:22;95104.50;;;15.70;62.28
25420;BME280;13354;48.174;11.566;2023-04-23T02:48:48;95102.13;;;15.86;61.64
25420;BME280;13354;48.174;11.566;2023-04-23T02:51:13;95097.50;;;15.81;61.89
25420;BME280;13354;48.174;11.566;2023-04-23T02:53:38;95098.94;;;15.72;62.29
25420;BME280;13354;48.174;11.566;2023-04-23T02:56:04;95103.44;;;15.72;62.35
25420;BME280;13354;48.174;11.566;2023-04-23T02:58:29;95100.44;;;15.80;62.25
25420;BME280;13354;48.174;11.566;2023-04-23T03:00:55;95097.44;;;15.76;62.13
25420;BME280;13354;48.174;11.566;2023-04-23T03:03:20;95100.09;;;15.64;61.78
25420;BME280;13354;48.174;11.566;2023-04-23T03:05:45;95102.75;;;15.64;61.89
25420;BME280;13354;48.174;11.566;2023-04-23T03:08:11;95103.59;;;15.65;61.48
25420;BME280;13354;48.174;11.566;2023-04-23T03:10:36;95104.66;;;15.52;61.83
25420;BME280;13354;48.174;11.566;2023-04-23T03:13:01;95103.97;;;15.45;62.44
25420;BME280;13354;48.174;11.566;2023-04-23T03:15:26;95107.31;;;15.52;62.35
25420;BME280;13354;48.174;11.566;2023-04-23T03:17:52;95104.69;;;15.40;62.31
25420;BME280;13354;48.174;11.566;2023-04-23T03:20:18;95102.41;;;15.32;62.83
25420;BME280;13354;48.174;11.566;2023-04-23T03:22:43;95105.06;;;15.32;62.70
25420;BME280;13354;48.174;11.566;2023-04-23T03:25:08;95114.81;;;15.27;62.75
25420;BME280;13354;48.174;11.566;2023-04-23T03:27:34;95109.69;;;15.37;62.55
25420;BME280;13354;48.174;11.566;2023-04-23T03:29:59;95111.34;;;15.26;62.99
25420;BME280;13354;48.174;11.566;2023-04-23T03:32:24;95116.66;;;15.26;62.81
25420;BME280;13354;48.174;11.566;2023-04-23T03:34:50;95123.06;;;15.25;63.01
25420;BME280;13354;48.174;11.566;2023-04-23T03:37:15;95122.13;;;15.19;63.21
25420;BME280;13354;48.174;11.566;2023-04-23T03:39:40;95121.56;;;15.17;63.34
25420;BME280;13354;48.174;11.566;2023-04-23T03:42:05;95116.78;;;15.19;63.30
25420;BME280;13354;48.174;11.566;2023-04-23T03:44:30;95122.38;;;15.18;63.65
25420;BME280;13354;48.174;11.566;2023-04-23T03:46:56;95114.81;;;15.15;63.65
25420;BME280;13354;48.174;11.566;2023-04-23T03:49:21;95119.44;;;15.19;63.70
25420;BME280;13354;48.174;11.566;2023-04-23T03:51:46;95125.59;;;15.20;63.19
25420;BME280;13354;48.174;11.566;2023-04-23T03:54:12;95127.34;;;15.14;63.62
25420;BME280;13354;48.174;11.566;2023-04-23T03:56:37;95124.78;;;15.19;63.31
25420;BME280;13354;48.174;11.566;2023-04-23T03:59:02;95134.19;;;15.22;63.43
25420;BME280;13354;48.174;11.566;2023-04-23T04:01:27;95134.06;;;15.29;62.65
25420;BME280;13354;48.174;11.566;2023-04-23T04:03:52;95132.41;;;15.28;62.79
25420;BME280;13354;48.174;11.566;2023-04-23T04:06:18;95141.59;;;15.32;62.47
25420;BME280;13354;48.174;11.566;2023-04-23T04:08:43;95147.59;;;15.39;62.12
25420;BME280;13354;48.174;11.566;2023-04-23T04:11:08;95147.59;;;15.39;62.56
25420;BME280;13354;48.174;11.566;2023-04-23T04:13:33;95149.91;;;15.35;62.83
25420;BME280;13354;48.174;11.566;2023-04-23T04:15:58;95147.38;;;15.40;62.99
25420;BME280;13354;48.174;11.566;2023-04-23T04:18:24;95155.94;;;15.31;63.59
25420;BME280;13354;48.174;11.566;2023-04-23T04:20:49;95155.84;;;15.37;62.91
25420;BME280;13354;48.174;11.566;2023-04-23T04:23:16;95155.59;;;15.39;63.25
25420;BME280;13354;48.174;11.566;2023-04-23T04:25:41;95153.06;;;15.32;63.74
25420;BME280;13354;48.174;11.566;2023-04-23T04:28:06;95155.97;;;15.19;64.94
25420;BME280;13354;48.174;11.566;2023-04-23T04:30:33;95155.94;;;15.31;64.56
25420;BME280;13354;48.174;11.566;2023-04-23T04:32:58;95164.44;;;15.16;65.66
25420;BME280;13354;48.174;11.566;2023-04-23T04:35:25;95165.25;;;15.05;66.67
25420;BME280;13354;48.174;11.566;2023-04-23T04:37:50;95172.56;;;14.86;68.60
25420;BME280;13354;48.174;11.566;2023-04-23T04:40:18;95171.59;;;14.68;69.74
25420;BME280;13354;48.174;11.566;2023-04-23T04:42:44;95169.28;;;14.60;70.55
25420;BME280;13354;48.174;11.566;2023-04-23T04:45:10;95168.72;;;14.58;71.54
25420;BME280;13354;48.174;11.566;2023-04-23T04:47:35;95168.34;;;14.55;72.02
25420;BME280;13354;48.174;11.566;2023-04-23T04:50:01;95174.44;;;14.43;73.19
25420;BME280;13354;48.174;11.566;2023-04-23T04:52:26;95168.22;;;14.49;73.59
25420;BME280;13354;48.174;11.566;2023-04-23T04:54:51;95167.47;;;14.42;74.38
25420;BME280;13354;48.174;11.566;2023-04-23T04:57:17;95181.13;;;14.34;75.01
25420;BME280;13354;48.174;11.566;2023-04-23T04:59:43;95178.28;;;14.17;76.31
25420;BME280;13354;48.174;11.566;2023-04-23T05:02:09;95189.53;;;14.19;76.93
25420;BME280;13354;48.174;11.566;2023-04-23T05:04:34;95188.41;;;14.39;76.33
25420;BME280;13354;48.174;11.566;2023-04-23T05:07:00;95197.25;;;14.21;76.69
25420;BME280;13354;48.174;11.566;2023-04-23T05:09:25;95190.97;;;14.34;76.46
25420;BME280;13354;48.174;11.566;2023-04-23T05:11:50;95195.47;;;14.03;78.04
25420;BME280;13354;48.174;11.566;2023-04-23T05:14:16;95204.41;;;14.09;78.42
25420;BME280;13354;48.174;11.566;2023-04-23T05:16:41;95198.78;;;13.98;78.12
25420;BME280;13354;48.174;11.566;2023-04-23T05:19:06;95212.41;;;13.90;78.92
25420;BME280;13354;48.174;11.566;2023-04-23T05:21:32;95203.25;;;13.86;79.21
25420;BME280;13354;48.174;11.566;2023-04-23T05:23:57;95206.41;;;13.95;78.95
25420;BME280;13354;48.174;11.566;2023-04-23T05:26:23;95210.13;;;13.94;79.31
25420;BME280;13354;48.174;11.566;2023-04-23T05:28:48;95210.56;;;13.91;79.28
25420;BME280;13354;48.174;11.566;2023-04-23T05:31:13;95212.72;;;13.82;79.61
25420;BME280;13354;48.174;11.566;2023-04-23T05:33:38;95204.00;;;13.93;79.31
25420;BME280;13354;48.174;11.566;2023-04-23T05:36:03;95219.16;;;13.93;79.56
25420;BME280;13354;48.174;11.566;2023-04-23T05:38:29;95221.88;;;13.86;79.33
25420;BME280;13354;48.174;11.566;2023-04-23T05:40:54;95216.06;;;13.77;79.61
25420;BME280;13354;48.174;11.566;2023-04-23T05:43:19;95227.97;;;13.75;80.11
25420;BME280;13354;48.174;11.566;2023-04-23T05:45:45;95217.16;;;13.88;79.66
25420;BME280;13354;48.174;11.566;2023-04-23T05:48:10;95230.00;;;13.91;79.75
25420;BME280;13354;48.174;11.566;2023-04-23T05:50:35;95234.69;;;13.77;80.26
25420;BME280;13354;48.174;11.566;2023-04-23T05:53:01;95230.38;;;13.76;80.04
25420;BME280;13354;48.174;11.566;2023-04-23T05:55:26;95226.47;;;13.79;79.81
25420;BME280;13354;48.174;11.566;2023-04-23T05:57:51;95235.34;;;13.73;80.10
25420;BME280;13354;48.174;11.566;2023-04-23T06:00:16;95235.19;;;13.68;80.33
25420;BME280;13354;48.174;11.566;2023-04-23T06:02:41;95231.22;;;13.59;80.97
25420;BME280;13354;48.174;11.566;2023-04-23T06:05:07;95234.91;;;13.58;81.77
25420;BME280;13354;48.174;11.566;2023-04-23T06:07:32;95239.41;;;13.57;82.77
25420;BME280;13354;48.174;11.566;2023-04-23T06:09:58;95242.38;;;13.49;83.68
25420;BME280;13354;48.174;11.566;2023-04-23T06:12:23;95231.41;;;13.39;83.55
25420;BME280;13354;48.174;11.566;2023-04-23T06:14:48;95234.81;;;13.64;83.19
25420;BME280;13354;48.174;11.566;2023-04-23T06:17:14;95236.59;;;13.70;83.24
25420;BME280;13354;48.174;11.566;2023-04-23T06:19:40;95236.25;;;13.67;83.33
25420;BME280;13354;48.174;11.566;2023-04-23T06:22:05;95229.66;;;13.69;83.64
25420;BME280;13354;48.174;11.566;2023-04-23T06:24:30;95230.91;;;13.67;83.83
25420;BME280;13354;48.174;11.566;2023-04-23T06:26:55;95230.63;;;13.75;84.39
25420;BME280;13354;48.174;11.566;2023-04-23T06:29:21;95243.19;;;13.86;83.06
25420;BME280;13354;48.174;11.566;2023-04-23T06:31:47;95242.44;;;13.79;83.38
25420;BME280;13354;48.174;11.566;2023-04-23T06:34:12;95244.44;;;13.84;83.18
25420;BME280;13354;48.174;11.566;2023-04-23T06:36:37;95251.75;;;13.70;83.80
25420;BME280;13354;48.174;11.566;2023-04-23T06:39:02;95245.78;;;13.74;84.81
25420;BME280;13354;48.174;11.566;2023-04-23T06:41:27;95250.28;;;13.56;86.04
25420;BME280;13354;48.174;11.566;2023-04-23T06:43:53;95250.16;;;13.44;87.29
25420;BME280;13354;48.174;11.566;2023-04-23T06:46:18;95250.78;;;13.46;87.46
25420;BME280;13354;48.174;11.566;2023-04-23T06:48:43;95247.97;;;13.41;89.04
25420;BME280;13354;48.174;11.566;2023-04-23T06:51:08;95248.72;;;13.48;87.56
25420;BME280;13354;48.174;11.566;2023-04-23T06:53:34;95242.78;;;13.46;87.07
25420;BME280;13354;48.174;11.566;2023-04-23T06:55:59;95238.28;;;13.46;88.09
25420;BME280;13354;48.174;11.566;2023-04-23T06:58:24;95237.78;;;13.38;88.58
25420;BME280;13354;48.174;11.566;2023-04-23T07:00:55;95238.69;;;13.25;89.49
25420;BME280;13354;48.174;11.566;2023-04-23T07:03:21;95239.63;;;13.37;90.56
25420;BME280;13354;48.174;11.566;2023-04-23T07:05:46;95240.50;;;13.31;91.05
25420;BME280;13354;48.174;11.566;2023-04-23T07:08:11;95231.84;;;13.36;91.24
25420;BME280;13354;48.174;11.566;2023-04-23T07:10:37;95235.84;;;13.45;90.02
25420;BME280;13354;48.174;11.566;2023-04-23T07:13:02;95232.31;;;13.51;88.86
25420;BME280;13354;48.174;11.566;2023-04-23T07:15:27;95229.13;;;13.42;90.74
25420;BME280;13354;48.174;11.566;2023-04-23T07:17:52;95220.78;;;13.39;90.81
25420;BME280;13354;48.174;11.566;2023-04-23T07:20:18;95217.91;;;13.40;90.81
25420;BME280;13354;48.174;11.566;2023-04-23T07:22:44;95221.09;;;13.49;89.39
25420;BME280;13354;48.174;11.566;2023-04-23T07:25:10;95220.94;;;13.62;89.39
25420;BME280;13354;48.174;11.566;2023-04-23T07:27:35;95232.59;;;13.43;89.88
25420;BME280;13354;48.174;11.566;2023-04-23T07:30:01;95226.25;;;13.44;90.14
25420;BME280;13354;48.174;11.566;2023-04-23T07:32:26;95233.03;;;13.58;89.17
25420;BME280;13354;48.174;11.566;2023-04-23T07:34:52;95231.44;;;13.57;88.21
25420;BME280;13354;48.174;11.566;2023-04-23T07:37:18;95243.47;;;13.60;86.93
25420;BME280;13354;48.174;11.566;2023-04-23T07:39:43;95236.44;;;13.47;87.67
25420;BME280;13354;48.174;11.566;2023-04-23T07:42:08;95232.59;;;13.61;87.55
25420;BME280;13354;48.174;11.566;2023-04-23T07:44:33;95229.63;;;13.51;88.04
25420;BME280;13354;48.174;11.566;2023-04-23T07:46:58;95229.63;;;13.51;87.62
25420;BME280;13354;48.174;11.566;2023-04-23T07:49:24;95239.91;;;13.47;88.77
25420;BME280;13354;48.174;11.566;2023-04-23T07:51:49;95229.56;;;13.58;88.66
25420;BME280;13354;48.174;11.566;2023-04-23T07:54:15;95235.56;;;13.53;88.25
25420;BME280;13354;48.174;11.566;2023-04-23T07:56:40;95240.88;;;13.53;87.75
25420;BME280;13354;48.174;11.566;2023-04-23T07:59:05;95234.53;;;13.72;87.36
25420;BME280;13354;48.174;11.566;2023-04-23T08:01:33;95236.97;;;13.74;85.99
25420;BME280;13354;48.174;11.566;2023-04-23T08:03:59;95233.72;;;13.72;85.76
25420;BME280;13354;48.174;11.566;2023-04-23T08:06:24;95232.84;;;13.60;86.50
25420;BME280;13354;48.174;11.566;2023-04-23T08:08:51;95236.44;;;13.65;85.30
25420;BME280;13354;48.174;11.566;2023-04-23T08:11:16;95238.91;;;13.67;86.19
25420;BME280;13354;48.174;11.566;2023-04-23T08:13:41;95233.59;;;13.67;85.42
25420;BME280;13354;48.174;11.566;2023-04-23T08:16:06;95229.38;;;13.59;85.97
25420;BME280;13354;48.174;11.566;2023-04-23T08:18:32;95227.34;;;13.54;86.04
25420;BME280;13354;48.174;11.566;2023-04-23T08:20:57;95221.75;;;13.63;85.61
25420;BME280;13354;48.174;11.566;2023-04-23T08:23:22;95218.38;;;13.56;87.03
25420;BME280;13354;48.174;11.566;2023-04-23T08:25:48;95218.94;;;13.58;86.96
25420;BME280;13354;48.174;11.566;2023-04-23T08:28:13;95214.66;;;13.75;85.79
25420;BME280;13354;48.174;11.566;2023-04-23T08:30:38;95219.75;;;13.76;85.23
25420;BME280;13354;48.174;11.566;2023-04-23T08:33:03;95214.59;;;13.82;84.99
25420;BME280;13354;48.174;11.566;2023-04-23T08:35:29;95206.97;;;13.85;84.62
25420;BME280;13354;48.174;11.566;2023-04-23T08:37:54;95208.06;;;13.96;85.42
25420;BME280;13354;48.174;11.566;2023-04-23T08:40:19;95200.34;;;14.06;83.71
25420;BME280;13354;48.174;11.566;2023-04-23T08:42:48;95199.28;;;14.25;84.50
25420;BME280;13354;48.174;11.566;2023-04-23T08:45:14;95199.50;;;14.36;83.44
25420;BME280;13354;48.174;11.566;2023-04-23T08:47:40;95196.28;;;14.76;79.03
25420;BME280;13354;48.174;11.566;2023-04-23T08:50:09;95198.84;;;14.82;79.80
25420;BME280;13354;48.174;11.566;2023-04-23T08:52:34;95200.16;;;14.91;77.08
25420;BME280;13354;48.174;11.566;2023-04-23T08:55:03;95201.31;;;15.19;74.92
25420;BME280;13354;48.174;11.566;2023-04-23T08:57:30;95204.78;;;15.08;74.44
25420;BME280;13354;48.174;11.566;2023-04-23T08:59:55;95199.00;;;15.11;74.97
25420;BME280;13354;48.174;11.566;2023-04-23T09:02:21;95200.84;;;15.34;74.54
25420;BME280;13354;48.174;11.566;2023-04-23T09:04:46;95198.38;;;15.20;75.62
25420;BME280;13354;48.174;11.566;2023-04-23T09:07:12;95198.06;;;15.29;74.48
25420;BME280;13354;48.174;11.566;2023-04-23T09:09:38;95185.66;;;15.11;72.35
25420;BME280;13354;48.174;11.566;2023-04-23T09:12:05;95187.84;;;15.26;73.00
25420;BME280;13354;48.174;11.566;2023-04-23T09:14:33;95195.72;;;15.20;73.25
25420;BME280;13354;48.174;11.566;2023-04-23T09:16:59;95188.19;;;15.29;73.56
25420;BME280;13354;48.174;11.566;2023-04-23T09:19:25;95183.53;;;15.48;73.51
25420;BME280;13354;48.174;11.566;2023-04-23T09:21:52;95186.66;;;15.45;73.06
25420;BME280;13354;48.174;11.566;2023-04-23T09:24:17;95179.69;;;15.67;72.84
25420;BME280;13354;48.174;11.566;2023-04-23T09:26:43;95181.19;;;15.63;72.08
25420;BME280;13354;48.174;11.566;2023-04-23T09:29:15;95176.00;;;15.68;71.20
25420;BME280;13354;48.174;11.566;2023-04-23T09:31:44;95168.44;;;15.77;70.67
25420;BME280;13354;48.174;11.566;2023-04-23T09:34:09;95169.53;;;15.93;70.99
25420;BME280;13354;48.174;11.566;2023-04-23T09:36:35;95160.00;;;15.97;71.64
25420;BME280;13354;48.174;11.566;2023-04-23T09:39:01;95167.59;;;16.17;72.12
25420;BME280;13354;48.174;11.566;2023-04-23T09:41:26;95171.94;;;16.06;69.98
25420;BME280;13354;48.174;11.566;2023-04-23T09:43:55;95163.28;;;16.16;68.01
25420;BME280;13354;48.174;11.566;2023-04-23T09:46:40;95159.69;;;16.39;64.77
25420;BME280;13354;48.174;11.566;2023-04-23T09:49:06;95155.38;;;16.38;65.54
25420;BME280;13354;48.174;11.566;2023-04-23T09:51:32;95156.38;;;16.03;66.40
25420;BME280;13354;48.174;11.566;2023-04-23T09:54:00;95150.25;;;16.03;68.19
25420;BME280;13354;48.174;11.566;2023-04-23T09:56:26;95146.16;;;16.00;67.62
25420;BME280;13354;48.174;11.566;2023-04-23T09:58:51;95144.50;;;16.11;67.58
25420;BME280;13354;48.174;11.566;2023-04-23T10:01:16;95143.56;;;16.17;66.84
25420;BME280;13354;48.174;11.566;2023-04-23T10:03:42;95145.31;;;16.11;66.15
25420;BME280;13354;48.174;11.566;2023-04-23T10:06:12;95144.03;;;16.14;66.56
25420;BME280;13354;48.174;11.566;2023-04-23T10:08:37;95136.88;;;16.03;66.48
25420;BME280;13354;48.174;11.566;2023-04-23T10:11:03;95140.97;;;16.22;66.61
25420;BME280;13354;48.174;11.566;2023-04-23T10:13:29;95136.31;;;16.01;66.83
25420;BME280;13354;48.174;11.566;2023-04-23T10:15:54;95138.63;;;15.97;67.13
25420;BME280;13354;48.174;11.566;2023-04-23T10:18:20;95136.94;;;15.91;68.57
25420;BME280;13354;48.174;11.566;2023-04-23T10:20:46;95127.63;;;15.93;68.37
25420;BME280;13354;48.174;11.566;2023-04-23T10:23:12;95125.94;;;15.87;69.02
25420;BME280;13354;48.174;11.566;2023-04-23T10:25:38;95124.09;;;16.05;68.02
25420;BME280;13354;48.174;11.566;2023-04-23T10:28:04;95129.94;;;16.02;66.85
25420;BME280;13354;48.174;11.566;2023-04-23T10:30:31;95129.34;;;16.00;67.73
25420;BME280;13354;48.174;11.566;2023-04-23T10:32:56;95122.00;;;16.07;67.33
25420;BME280;13354;48.174;11.566;2023-04-23T10:35:24;95130.75;;;16.19;66.56
25420;BME280;13354;48.174;11.566;2023-04-23T10:37:49;95122.41;;;15.99;67.50
25420;BME280;13354;48.174;11.566;2023-04-23T10:40:26;95120.88;;;16.03;67.44
25420;BME280;13354;48.174;11.566;2023-04-23T10:42:53;95121.59;;;16.15;66.36
25420;BME280;13354;48.174;11.566;2023-04-23T10:45:19;95113.53;;;16.27;65.87
25420;BME280;13354;48.174;11.566;2023-04-23T10:47:45;95116.69;;;16.24;67.08
25420;BME280;13354;48.174;11.566;2023-04-23T10:50:23;95110.16;;;16.31;66.05
25420;BME280;13354;48.174;11.566;2023-04-23T10:52:49;95105.28;;;16.45;65.34
25420;BME280;13354;48.174;11.566;2023-04-23T10:55:25;95104.72;;;16.60;66.14
25420;BME280;13354;48.174;11.566;2023-04-23T10:57:54;95111.13;;;16.59;66.57
25420;BME280;13354;48.174;11.566;2023-04-23T11:00:19;95103.16;;;16.76;65.46
25420;BME280;13354;48.174;11.566;2023-04-23T11:02:45;95098.56;;;16.93;64.51
25420;BME280;13354;48.174;11.566;2023-04-23T11:05:10;95092.66;;;17.52;64.52
25420;BME280;13354;48.174;11.566;2023-04-23T11:07:36;95080.28;;;18.22;63.93
25420;BME280;13354;48.174;11.566;2023-04-23T11:10:21;95075.28;;;19.00;60.37
25420;BME280;13354;48.174;11.566;2023-04-23T11:12:46;95066.03;;;19.91;57.33
25420;BME280;13354;48.174;11.566;2023-04-23T11:15:12;95055.91;;;20.54;55.75
25420;BME280;13354;48.174;11.566;2023-04-23T11:22:34;95048.34;;;20.92;52.46
25420;BME280;13354;48.174;11.566;2023-04-23T11:25:00;95043.47;;;21.04;50.24
25420;BME280;13354;48.174;11.566;2023-04-23T11:27:26;95036.25;;;20.64;51.03
25420;BME280;13354;48.174;11.566;2023-04-23T11:29:53;95037.28;;;21.04;50.86
25420;BME280;13354;48.174;11.566;2023-04-23T11:32:19;95034.41;;;21.60;50.63
25420;BME280;13354;48.174;11.566;2023-04-23T11:34:45;95038.06;;;21.79;50.01
25420;BME280;13354;48.174;11.566;2023-04-23T11:37:13;95041.00;;;22.27;49.01
25420;BME280;13354;48.174;11.566;2023-04-23T11:39:39;95039.88;;;23.02;48.74
25420;BME280;13354;48.174;11.566;2023-04-23T11:42:14;95035.28;;;23.02;48.29
25420;BME280;13354;48.174;11.566;2023-04-23T11:44:39;95024.16;;;23.52;45.55
25420;BME280;13354;48.174;11.566;2023-04-23T11:47:08;95027.50;;;23.44;46.05
25420;BME280;13354;48.174;11.566;2023-04-23T11:49:40;95023.22;;;22.89;45.90
25420;BME280;13354;48.174;11.566;2023-04-23T11:52:06;95020.97;;;21.99;47.22
25420;BME280;13354;48.174;11.566;2023-04-23T11:54:32;95017.97;;;21.56;48.60
25420;BME280;13354;48.174;11.566;2023-04-23T11:56:58;95020.88;;;21.00;49.26
25420;BME280;13354;48.174;11.566;2023-04-23T11:59:24;95010.72;;;20.66;48.70
25420;BME280;13354;48.174;11.566;2023-04-23T12:01:50;94999.94;;;20.61;51.56
25420;BME280;13354;48.174;11.566;2023-04-23T12:04:19;94988.41;;;20.30;51.23
25420;BME280;13354;48.174;11.566;2023-04-23T12:06:45;94992.69;;;20.31;52.34
25420;BME280;13354;48.174;11.566;2023-04-23T12:09:11;94987.31;;;19.95;51.33
25420;BME280;13354;48.174;11.566;2023-04-23T12:11:37;94979.00;;;19.82;53.67
25420;BME280;13354;48.174;11.566;2023-04-23T12:14:02;94973.34;;;20.24;54.31
25420;BME280;13354;48.174;11.566;2023-04-23T12:18:59;94967.94;;;20.75;50.14
25420;BME280;13354;48.174;11.566;2023-04-23T12:21:24;94968.19;;;20.79;50.19
25420;BME280;13354;48.174;11.566;2023-04-23T12:23:50;94959.28;;;20.88;50.16
25420;BME280;13354;48.174;11.566;2023-04-23T12:26:15;94956.53;;;20.98;51.96
25420;BME280;13354;48.174;11.566;2023-04-23T12:28:51;94964.03;;;21.12;48.67
25420;BME280;13354;48.174;11.566;2023-04-23T12:31:24;94961.63;;;21.05;48.97
25420;BME280;13354;48.174;11.566;2023-04-23T12:33:55;94955.19;;;21.06;49.49
25420;BME280;13354;48.174;11.566;2023-04-23T12:36:24;94960.25;;;21.13;50.59
25420;BME280;13354;48.174;11.566;2023-04-23T12:38:51;94952.63;;;21.40;50.34
25420;BME280;13354;48.174;11.566;2023-04-23T12:41:16;94945.75;;;21.63;49.04
25420;BME280;13354;48.174;11.566;2023-04-23T12:43:41;94947.00;;;21.81;48.15
25420;BME280;13354;48.174;11.566;2023-04-23T12:46:06;94942.59;;;21.90;48.19
25420;BME280;13354;48.174;11.566;2023-04-23T12:48:31;94938.66;;;21.78;48.02
25420;BME280;13354;48.174;11.566;2023-04-23T12:50:56;94934.91;;;21.29;48.07